sensor_id;sensor_type;location;lat;lon;timestamp;pressure;altitude;pressure_sealevel;temperature;humidity
56142;BME280;42018;48.588;10.836;2023-04-07T00:01:01;96816.72;;;6.42;56.27
56142;BME280;42018;48.588;10.836;2023-04-07T00:03:47;96810.06;;;6.40;56.00
56142;BME280;42018;48.588;10.836;2023-04-07T00:06:32;96811.84;;;6.34;57.45
56142;BME280;42018;48.588;10.836;2023-04-07T00:09:17;96812.91;;;6.21;57.58
56142;BME280;42018;48.588;10.836;2023-04-07T00:12:02;96809.63;;;6.14;58.63
56142;BME280;42018;48.588;10.836;2023-04-07T00:14:48;96801.91;;;6.24;58.21
56142;BME280;42018;48.588;10.836;2023-04-07T00:17:33;96809.00;;;6.24;58.77
56142;BME280;42018;48.588;10.836;2023-04-07T00:20:18;96800.19;;;6.30;58.23
56142;BME280;42018;48.588;10.836;2023-04-07T00:23:03;96808.41;;;6.34;57.77
56142;BME280;42018;48.588;10.836;2023-04-07T00:25:49;96804.09;;;6.28;57.04
56142;BME280;42018;48.588;10.836;2023-04-07T00:28:34;96808.25;;;6.12;56.43
56142;BME280;42018;48.588;10.836;2023-04-07T00:31:19;96809.16;;;5.77;59.18
56142;BME280;42018;48.588;10.836;2023-04-07T00:34:05;96803.44;;;5.68;56.93
56142;BME280;42018;48.588;10.836;2023-04-07T00:36:50;96801.59;;;5.92;56.20
56142;BME280;42018;48.588;10.836;2023-04-07T00:39:36;96795.16;;;6.00;55.92
56142;BME280;42018;48.588;10.836;2023-04-07T00:42:21;96797.78;;;6.00;55.61
56142;BME280;42018;48.588;10.836;2023-04-07T00:45:06;96795.34;;;6.10;55.72
56142;BME280;42018;48.588;10.836;2023-04-07T00:47:52;96797.97;;;6.10;55.80
56142;BME280;42018;48.588;10.836;2023-04-07T00:50:37;96789.03;;;6.11;55.95
56142;BME280;42018;48.588;10.836;2023-04-07T00:53:22;96790.50;;;6.19;55.95
56142;BME280;42018;48.588;10.836;2023-04-07T00:56:08;96789.16;;;6.16;55.22
56142;BME280;42018;48.588;10.836;2023-04-07T00:58:53;96781.47;;;6.15;55.22
56142;BME280;42018;48.588;10.836;2023-04-07T01:01:50;96783.63;;;6.18;55.18
56142;BME280;42018;48.588;10.836;2023-04-07T01:04:46;96783.88;;;6.16;55.07
56142;BME280;42018;48.588;10.836;2023-04-07T01:07:51;96782.28;;;6.15;54.99
56142;BME280;42018;48.588;10.836;2023-04-07T01:10:50;96783.44;;;6.19;55.24
56142;BME280;42018;48.588;10.836;2023-04-07T01:13:37;96784.44;;;6.18;56.45
56142;BME280;42018;48.588;10.836;2023-04-07T01:16:26;96783.69;;;6.06;59.25
56142;BME280;42018;48.588;10.836;2023-04-07T01:22:16;96786.88;;;6.08;61.16
56142;BME280;42018;48.588;10.836;2023-04-07T01:30:45;96775.34;;;6.09;62.04
56142;BME280;42018;48.588;10.836;2023-04-07T01:33:31;96788.56;;;6.14;62.43
56142;BME280;42018;48.588;10.836;2023-04-07T01:36:18;96778.78;;;6.10;63.00
56142;BME280;42018;48.588;10.836;2023-04-07T01:39:05;96785.81;;;5.92;64.48
56142;BME280;42018;48.588;10.836;2023-04-07T01:41:51;96777.00;;;5.98;64.36
56142;BME280;42018;48.588;10.836;2023-04-07T01:44:37;96771.81;;;6.04;64.94
56142;BME280;42018;48.588;10.836;2023-04-07T01:47:23;96774.56;;;6.09;64.73
56142;BME280;42018;48.588;10.836;2023-04-07T01:50:11;96771.16;;;5.96;65.46
56142;BME280;42018;48.588;10.836;2023-04-07T01:52:57;96769.72;;;5.77;66.38
56142;BME280;42018;48.588;10.836;2023-04-07T01:55:43;96769.25;;;5.80;66.52
56142;BME280;42018;48.588;10.836;2023-04-07T01:58:28;96767.78;;;5.72;67.13
56142;BME280;42018;48.588;10.836;2023-04-07T02:01:13;96769.19;;;5.63;67.58
56142;BME280;42018;48.588;10.836;2023-04-07T02:04:01;96764.91;;;5.74;67.53
56142;BME280;42018;48.588;10.836;2023-04-07T02:06:52;96778.78;;;5.58;68.46
56142;BME280;42018;48.588;10.836;2023-04-07T02:09:38;96766.22;;;5.60;68.58
56142;BME280;42018;48.588;10.836;2023-04-07T02:12:27;96761.84;;;5.77;68.03
56142;BME280;42018;48.588;10.836;2023-04-07T02:15:14;96758.78;;;5.57;69.12
56142;BME280;42018;48.588;10.836;2023-04-07T02:18:00;96753.63;;;5.62;69.14
56142;BME280;42018;48.588;10.836;2023-04-07T02:20:46;96756.59;;;5.65;69.62
56142;BME280;42018;48.588;10.836;2023-04-07T02:23:33;96762.88;;;5.64;69.93
56142;BME280;42018;48.588;10.836;2023-04-07T02:26:19;96760.06;;;5.54;70.78
56142;BME280;42018;48.588;10.836;2023-04-07T02:29:05;96757.66;;;5.52;71.01
56142;BME280;42018;48.588;10.836;2023-04-07T02:31:50;96755.41;;;5.44;71.71
56142;BME280;42018;48.588;10.836;2023-04-07T02:34:36;96758.63;;;5.35;72.52
56142;BME280;42018;48.588;10.836;2023-04-07T02:37:21;96756.53;;;5.37;72.89
56142;BME280;42018;48.588;10.836;2023-04-07T02:40:06;96749.25;;;5.39;73.35
56142;BME280;42018;48.588;10.836;2023-04-07T02:42:52;96746.69;;;5.44;73.25
56142;BME280;42018;48.588;10.836;2023-04-07T02:45:37;96752.00;;;5.20;74.72
56142;BME280;42018;48.588;10.836;2023-04-07T02:48:22;96752.34;;;5.12;75.33
56142;BME280;42018;48.588;10.836;2023-04-07T02:51:07;96750.66;;;5.06;76.27
56142;BME280;42018;48.588;10.836;2023-04-07T02:53:53;96748.59;;;4.96;77.21
56142;BME280;42018;48.588;10.836;2023-04-07T02:56:38;96750.97;;;4.98;78.22
56142;BME280;42018;48.588;10.836;2023-04-07T02:59:23;96751.66;;;5.05;77.98
56142;BME280;42018;48.588;10.836;2023-04-07T03:02:08;96750.75;;;5.11;78.30
56142;BME280;42018;48.588;10.836;2023-04-07T03:04:54;96747.44;;;5.04;78.51
56142;BME280;42018;48.588;10.836;2023-04-07T03:07:39;96749.16;;;5.22;78.40
56142;BME280;42018;48.588;10.836;2023-04-07T03:10:24;96749.94;;;5.22;78.35
56142;BME280;42018;48.588;10.836;2023-04-07T03:13:09;96747.31;;;5.22;78.66
56142;BME280;42018;48.588;10.836;2023-04-07T03:15:56;96742.66;;;5.13;78.77
56142;BME280;42018;48.588;10.836;2023-04-07T03:18:42;96741.72;;;5.31;78.45
56142;BME280;42018;48.588;10.836;2023-04-07T03:21:27;96739.56;;;5.27;78.31
56142;BME280;42018;48.588;10.836;2023-04-07T03:24:13;96734.28;;;5.39;78.45
56142;BME280;42018;48.588;10.836;2023-04-07T03:26:58;96733.34;;;5.45;77.76
56142;BME280;42018;48.588;10.836;2023-04-07T03:29:43;96728.75;;;5.52;78.27
56142;BME280;42018;48.588;10.836;2023-04-07T03:32:28;96728.16;;;5.62;78.17
56142;BME280;42018;48.588;10.836;2023-04-07T03:35:14;96729.97;;;5.62;78.08
56142;BME280;42018;48.588;10.836;2023-04-07T03:37:59;96724.50;;;5.63;78.28
56142;BME280;42018;48.588;10.836;2023-04-07T03:40:44;96723.97;;;5.49;79.10
56142;BME280;42018;48.588;10.836;2023-04-07T03:43:30;96728.84;;;5.58;79.44
56142;BME280;42018;48.588;10.836;2023-04-07T03:46:15;96714.81;;;5.52;80.52
56142;BME280;42018;48.588;10.836;2023-04-07T03:49:00;96721.00;;;5.46;80.73
56142;BME280;42018;48.588;10.836;2023-04-07T03:51:46;96724.56;;;5.40;80.93
56142;BME280;42018;48.588;10.836;2023-04-07T03:54:31;96718.03;;;5.42;80.97
56142;BME280;42018;48.588;10.836;2023-04-07T03:57:19;96711.50;;;5.57;80.72
56142;BME280;42018;48.588;10.836;2023-04-07T04:00:04;96713.59;;;5.71;80.44
56142;BME280;42018;48.588;10.836;2023-04-07T04:02:50;96714.03;;;5.80;80.08
56142;BME280;42018;48.588;10.836;2023-04-07T04:05:35;96706.00;;;5.87;80.00
56142;BME280;42018;48.588;10.836;2023-04-07T04:08:20;96701.06;;;6.02;78.62
56142;BME280;42018;48.588;10.836;2023-04-07T04:11:06;96702.03;;;6.13;75.85
56142;BME280;42018;48.588;10.836;2023-04-07T04:13:51;96705.78;;;6.34;73.46
56142;BME280;42018;48.588;10.836;2023-04-07T04:16:36;96706.81;;;6.33;74.79
56142;BME280;42018;48.588;10.836;2023-04-07T04:19:21;96694.47;;;6.33;74.92
56142;BME280;42018;48.588;10.836;2023-04-07T04:22:07;96697.09;;;6.33;75.18
56142;BME280;42018;48.588;10.836;2023-04-07T04:24:52;96696.28;;;6.33;73.84
56142;BME280;42018;48.588;10.836;2023-04-07T04:27:37;96693.25;;;6.24;74.03
56142;BME280;42018;48.588;10.836;2023-04-07T04:30:22;96693.19;;;6.36;72.22
56142;BME280;42018;48.588;10.836;2023-04-07T04:33:08;96697.88;;;6.17;74.42
56142;BME280;42018;48.588;10.836;2023-04-07T04:35:53;96694.38;;;6.28;72.49
56142;BME280;42018;48.588;10.836;2023-04-07T04:38:38;96693.75;;;6.38;71.51
56142;BME280;42018;48.588;10.836;2023-04-07T04:41:23;96688.63;;;6.31;72.25
56142;BME280;42018;48.588;10.836;2023-04-07T04:44:09;96690.63;;;6.41;71.36
56142;BME280;42018;48.588;10.836;2023-04-07T04:46:54;96692.84;;;6.32;72.72
56142;BME280;42018;48.588;10.836;2023-04-07T04:49:40;96697.50;;;6.42;71.93
56142;BME280;42018;48.588;10.836;2023-04-07T04:52:25;96694.59;;;6.43;72.75
56142;BME280;42018;48.588;10.836;2023-04-07T04:55:11;96692.63;;;6.34;73.47
56142;BME280;42018;48.588;10.836;2023-04-07T04:57:56;96695.75;;;6.31;74.74
56142;BME280;42018;48.588;10.836;2023-04-07T05:00:42;96702.09;;;6.18;75.32
56142;BME280;42018;48.588;10.836;2023-04-07T05:03:27;96693.81;;;6.26;75.99
56142;BME280;42018;48.588;10.836;2023-04-07T05:06:12;96693.34;;;6.12;78.63
56142;BME280;42018;48.588;10.836;2023-04-07T05:08:58;96695.41;;;6.10;79.10
56142;BME280;42018;48.588;10.836;2023-04-07T05:11:43;96687.03;;;6.13;76.64
56142;BME280;42018;48.588;10.836;2023-04-07T05:14:28;96686.91;;;6.37;75.18
56142;BME280;42018;48.588;10.836;2023-04-07T05:17:14;96688.22;;;6.39;74.67
56142;BME280;42018;48.588;10.836;2023-04-07T05:19:59;96690.06;;;6.39;74.50
56142;BME280;42018;48.588;10.836;2023-04-07T05:22:44;96689.09;;;6.11;77.17
56142;BME280;42018;48.588;10.836;2023-04-07T05:25:30;96682.81;;;6.29;75.63
56142;BME280;42018;48.588;10.836;2023-04-07T05:28:15;96676.75;;;6.29;75.39
56142;BME280;42018;48.588;10.836;2023-04-07T05:31:00;96677.38;;;6.36;75.36
56142;BME280;42018;48.588;10.836;2023-04-07T05:33:45;96681.94;;;6.23;75.61
56142;BME280;42018;48.588;10.836;2023-04-07T05:36:31;96683.44;;;6.03;77.33
56142;BME280;42018;48.588;10.836;2023-04-07T05:39:16;96683.03;;;5.82;78.73
56142;BME280;42018;48.588;10.836;2023-04-07T05:42:01;96687.00;;;5.68;79.64
56142;BME280;42018;48.588;10.836;2023-04-07T05:44:47;96683.31;;;5.69;80.18
56142;BME280;42018;48.588;10.836;2023-04-07T05:47:32;96687.69;;;5.63;80.91
56142;BME280;42018;48.588;10.836;2023-04-07T05:50:17;96678.31;;;5.67;81.27
56142;BME280;42018;48.588;10.836;2023-04-07T05:53:02;96681.13;;;6.06;79.61
56142;BME280;42018;48.588;10.836;2023-04-07T05:55:48;96675.38;;;6.26;77.92
56142;BME280;42018;48.588;10.836;2023-04-07T05:58:33;96677.72;;;6.39;77.23
56142;BME280;42018;48.588;10.836;2023-04-07T06:01:18;96670.53;;;6.35;76.67
56142;BME280;42018;48.588;10.836;2023-04-07T06:04:03;96662.66;;;6.35;76.80
56142;BME280;42018;48.588;10.836;2023-04-07T06:06:49;96673.41;;;6.33;76.47
56142;BME280;42018;48.588;10.836;2023-04-07T06:09:34;96677.31;;;6.47;75.85
56142;BME280;42018;48.588;10.836;2023-04-07T06:12:20;96678.13;;;6.48;75.25
56142;BME280;42018;48.588;10.836;2023-04-07T06:15:05;96683.22;;;6.38;75.82
56142;BME280;42018;48.588;10.836;2023-04-07T06:17:50;96672.28;;;6.46;75.70
56142;BME280;42018;48.588;10.836;2023-04-07T06:20:36;96665.53;;;6.33;75.59
56142;BME280;42018;48.588;10.836;2023-04-07T06:23:21;96677.94;;;5.75;78.07
56142;BME280;42018;48.588;10.836;2023-04-07T06:26:09;96663.34;;;5.68;79.73
56142;BME280;42018;48.588;10.836;2023-04-07T06:28:56;96666.09;;;5.90;78.47
56142;BME280;42018;48.588;10.836;2023-04-07T06:31:41;96662.53;;;5.96;78.18
56142;BME280;42018;48.588;10.836;2023-04-07T06:34:27;96664.38;;;5.67;79.80
56142;BME280;42018;48.588;10.836;2023-04-07T06:37:12;96667.47;;;5.35;81.92
56142;BME280;42018;48.588;10.836;2023-04-07T06:39:57;96663.84;;;5.24;82.20
56142;BME280;42018;48.588;10.836;2023-04-07T06:42:42;96663.47;;;5.61;80.53
56142;BME280;42018;48.588;10.836;2023-04-07T06:45:28;96671.28;;;5.56;81.26
56142;BME280;42018;48.588;10.836;2023-04-07T06:48:13;96667.88;;;5.72;80.42
56142;BME280;42018;48.588;10.836;2023-04-07T06:50:58;96665.97;;;5.96;78.99
56142;BME280;42018;48.588;10.836;2023-04-07T06:53:43;96664.03;;;5.92;79.98
56142;BME280;42018;48.588;10.836;2023-04-07T06:56:29;96658.59;;;5.82;80.31
56142;BME280;42018;48.588;10.836;2023-04-07T06:59:14;96661.50;;;5.68;80.13
56142;BME280;42018;48.588;10.836;2023-04-07T07:02:00;96659.34;;;5.94;80.79
56142;BME280;42018;48.588;10.836;2023-04-07T07:04:45;96662.44;;;5.91;80.37
56142;BME280;42018;48.588;10.836;2023-04-07T07:07:30;96660.38;;;5.93;81.05
56142;BME280;42018;48.588;10.836;2023-04-07T07:10:15;96662.31;;;6.14;80.20
56142;BME280;42018;48.588;10.836;2023-04-07T07:13:01;96659.94;;;6.30;79.16
56142;BME280;42018;48.588;10.836;2023-04-07T07:15:46;96657.53;;;6.62;77.00
56142;BME280;42018;48.588;10.836;2023-04-07T07:18:33;96661.28;;;6.32;78.13
56142;BME280;42018;48.588;10.836;2023-04-07T07:21:21;96654.75;;;6.52;77.06
56142;BME280;42018;48.588;10.836;2023-04-07T07:24:07;96661.84;;;6.34;78.12
56142;BME280;42018;48.588;10.836;2023-04-07T07:26:52;96667.97;;;6.06;79.63
56142;BME280;42018;48.588;10.836;2023-04-07T07:29:37;96663.84;;;6.10;80.08
56142;BME280;42018;48.588;10.836;2023-04-07T07:32:22;96661.84;;;6.17;78.64
56142;BME280;42018;48.588;10.836;2023-04-07T07:35:08;96653.47;;;6.04;80.19
56142;BME280;42018;48.588;10.836;2023-04-07T07:37:53;96658.56;;;6.10;80.21
56142;BME280;42018;48.588;10.836;2023-04-07T07:40:38;96663.59;;;6.29;79.41
56142;BME280;42018;48.588;10.836;2023-04-07T07:43:23;96666.84;;;6.19;78.90
56142;BME280;42018;48.588;10.836;2023-04-07T07:46:09;96659.22;;;6.17;79.58
56142;BME280;42018;48.588;10.836;2023-04-07T07:48:56;96668.16;;;6.16;78.79
56142;BME280;42018;48.588;10.836;2023-04-07T07:51:41;96666.97;;;6.41;79.33
56142;BME280;42018;48.588;10.836;2023-04-07T07:54:26;96669.66;;;6.46;78.05
56142;BME280;42018;48.588;10.836;2023-04-07T07:57:12;96666.78;;;6.47;78.56
56142;BME280;42018;48.588;10.836;2023-04-07T07:59:57;96666.38;;;6.39;77.98
56142;BME280;42018;48.588;10.836;2023-04-07T08:02:42;96665.38;;;6.79;76.85
56142;BME280;42018;48.588;10.836;2023-04-07T08:05:27;96660.34;;;6.94;76.98
56142;BME280;42018;48.588;10.836;2023-04-07T08:08:13;96660.94;;;7.01;75.68
56142;BME280;42018;48.588;10.836;2023-04-07T08:10:58;96662.06;;;7.05;74.95
56142;BME280;42018;48.588;10.836;2023-04-07T08:13:43;96658.97;;;7.35;74.17
56142;BME280;42018;48.588;10.836;2023-04-07T08:16:30;96665.16;;;7.46;74.35
56142;BME280;42018;48.588;10.836;2023-04-07T08:19:15;96666.28;;;7.28;74.08
56142;BME280;42018;48.588;10.836;2023-04-07T08:22:00;96662.03;;;7.49;73.94
56142;BME280;42018;48.588;10.836;2023-04-07T08:24:46;96672.91;;;7.80;72.43
56142;BME280;42018;48.588;10.836;2023-04-07T08:27:31;96672.69;;;7.59;72.19
56142;BME280;42018;48.588;10.836;2023-04-07T08:30:17;96670.19;;;7.26;72.40
56142;BME280;42018;48.588;10.836;2023-04-07T08:33:02;96672.63;;;7.32;72.72
56142;BME280;42018;48.588;10.836;2023-04-07T08:35:48;96671.47;;;7.45;73.30
56142;BME280;42018;48.588;10.836;2023-04-07T08:38:33;96668.97;;;7.55;70.90
56142;BME280;42018;48.588;10.836;2023-04-07T08:44:13;96674.69;;;7.47;72.32
56142;BME280;42018;48.588;10.836;2023-04-07T08:46:59;96666.63;;;7.86;70.72
56142;BME280;42018;48.588;10.836;2023-04-07T08:49:45;96667.03;;;7.73;70.73
56142;BME280;42018;48.588;10.836;2023-04-07T08:52:33;96654.84;;;7.94;70.73
56142;BME280;42018;48.588;10.836;2023-04-07T08:55:20;96663.25;;;7.90;69.76
56142;BME280;42018;48.588;10.836;2023-04-07T08:58:05;96664.22;;;7.79;69.68
56142;BME280;42018;48.588;10.836;2023-04-07T09:00:56;96660.84;;;8.16;68.64
56142;BME280;42018;48.588;10.836;2023-04-07T09:03:42;96660.13;;;8.58;68.09
56142;BME280;42018;48.588;10.836;2023-04-07T09:06:29;96661.75;;;8.32;65.73
56142;BME280;42018;48.588;10.836;2023-04-07T09:09:15;96665.13;;;8.22;69.00
56142;BME280;42018;48.588;10.836;2023-04-07T09:12:01;96659.56;;;8.24;67.62
56142;BME280;42018;48.588;10.836;2023-04-07T09:14:46;96659.38;;;8.68;66.08
56142;BME280;42018;48.588;10.836;2023-04-07T09:17:31;96654.16;;;8.78;65.34
56142;BME280;42018;48.588;10.836;2023-04-07T09:20:16;96664.13;;;9.13;64.45
56142;BME280;42018;48.588;10.836;2023-04-07T09:23:02;96658.47;;;9.47;63.12
56142;BME280;42018;48.588;10.836;2023-04-07T09:25:47;96660.56;;;9.45;61.84
56142;BME280;42018;48.588;10.836;2023-04-07T09:28:40;96661.47;;;9.86;60.09
56142;BME280;42018;48.588;10.836;2023-04-07T09:34:31;96649.63;;;10.40;59.16
56142;BME280;42018;48.588;10.836;2023-04-07T09:37:20;96653.03;;;10.71;57.91
56142;BME280;42018;48.588;10.836;2023-04-07T09:40:06;96647.56;;;11.17;55.95
56142;BME280;42018;48.588;10.836;2023-04-07T09:42:51;96646.06;;;10.95;55.44
56142;BME280;42018;48.588;10.836;2023-04-07T09:45:37;96650.25;;;11.12;53.51
56142;BME280;42018;48.588;10.836;2023-04-07T09:48:23;96645.09;;;11.41;53.84
56142;BME280;42018;48.588;10.836;2023-04-07T09:51:09;96646.50;;;11.28;53.32
56142;BME280;42018;48.588;10.836;2023-04-07T09:53:55;96645.97;;;11.26;52.29
56142;BME280;42018;48.588;10.836;2023-04-07T09:56:40;96647.63;;;11.07;51.65
56142;BME280;42018;48.588;10.836;2023-04-07T09:59:26;96639.78;;;11.46;51.52
56142;BME280;42018;48.588;10.836;2023-04-07T10:02:12;96650.50;;;11.15;51.37
56142;BME280;42018;48.588;10.836;2023-04-07T10:04:59;96645.69;;;11.33;49.77
56142;BME280;42018;48.588;10.836;2023-04-07T10:07:44;96646.94;;;11.45;51.41
56142;BME280;42018;48.588;10.836;2023-04-07T10:10:29;96643.38;;;11.65;50.16
56142;BME280;42018;48.588;10.836;2023-04-07T10:13:15;96646.47;;;11.33;51.28
56142;BME280;42018;48.588;10.836;2023-04-07T10:16:04;96644.47;;;10.94;53.53
56142;BME280;42018;48.588;10.836;2023-04-07T10:18:50;96643.19;;;11.51;52.61
56142;BME280;42018;48.588;10.836;2023-04-07T10:21:37;96637.94;;;11.96;51.29
56142;BME280;42018;48.588;10.836;2023-04-07T10:24:32;96637.44;;;12.23;50.82
56142;BME280;42018;48.588;10.836;2023-04-07T10:27:30;96641.69;;;11.90;49.89
56142;BME280;42018;48.588;10.836;2023-04-07T10:30:20;96641.50;;;11.71;50.08
56142;BME280;42018;48.588;10.836;2023-04-07T10:33:06;96636.69;;;11.73;50.91
56142;BME280;42018;48.588;10.836;2023-04-07T10:36:07;96644.06;;;11.37;50.94
56142;BME280;42018;48.588;10.836;2023-04-07T10:41:53;96645.47;;;11.73;51.44
56142;BME280;42018;48.588;10.836;2023-04-07T10:47:23;96651.28;;;11.26;51.05
56142;BME280;42018;48.588;10.836;2023-04-07T10:53:07;96646.81;;;11.06;52.50
56142;BME280;42018;48.588;10.836;2023-04-07T10:55:53;96644.53;;;11.49;52.62
56142;BME280;42018;48.588;10.836;2023-04-07T10:58:38;96638.06;;;11.70;51.23
56142;BME280;42018;48.588;10.836;2023-04-07T11:01:24;96641.38;;;11.96;50.50
56142;BME280;42018;48.588;10.836;2023-04-07T11:04:09;96640.03;;;11.99;49.88
56142;BME280;42018;48.588;10.836;2023-04-07T11:06:54;96641.09;;;11.98;50.35
56142;BME280;42018;48.588;10.836;2023-04-07T11:09:39;96643.56;;;11.79;50.21
56142;BME280;42018;48.588;10.836;2023-04-07T11:12:25;96638.38;;;11.64;50.42
56142;BME280;42018;48.588;10.836;2023-04-07T11:15:19;96636.66;;;11.88;51.12
56142;BME280;42018;48.588;10.836;2023-04-07T11:23:41;96629.00;;;12.50;49.97
56142;BME280;42018;48.588;10.836;2023-04-07T11:26:26;96630.94;;;12.39;50.09
56142;BME280;42018;48.588;10.836;2023-04-07T11:29:11;96629.47;;;12.23;48.79
56142;BME280;42018;48.588;10.836;2023-04-07T11:31:57;96631.25;;;12.33;50.15
56142;BME280;42018;48.588;10.836;2023-04-07T11:34:43;96628.22;;;12.44;49.70
56142;BME280;42018;48.588;10.836;2023-04-07T11:37:28;96630.44;;;12.66;49.65
56142;BME280;42018;48.588;10.836;2023-04-07T11:40:21;96623.31;;;12.86;48.06
56142;BME280;42018;48.588;10.836;2023-04-07T11:46:03;96626.97;;;12.95;48.10
56142;BME280;42018;48.588;10.836;2023-04-07T11:48:48;96632.72;;;12.78;47.71
56142;BME280;42018;48.588;10.836;2023-04-07T11:51:33;96628.00;;;12.41;48.52
56142;BME280;42018;48.588;10.836;2023-04-07T11:54:19;96629.75;;;12.56;50.07
56142;BME280;42018;48.588;10.836;2023-04-07T11:57:04;96632.50;;;12.45;49.42
56142;BME280;42018;48.588;10.836;2023-04-07T11:59:49;96627.50;;;12.68;49.61
56142;BME280;42018;48.588;10.836;2023-04-07T12:02:35;96625.78;;;12.53;50.05
56142;BME280;42018;48.588;10.836;2023-04-07T12:05:20;96625.00;;;12.53;50.20
56142;BME280;42018;48.588;10.836;2023-04-07T12:08:06;96622.25;;;12.63;49.50
56142;BME280;42018;48.588;10.836;2023-04-07T12:11:01;96624.59;;;12.64;49.43
56142;BME280;42018;48.588;10.836;2023-04-07T12:13:46;96625.91;;;12.67;49.63
56142;BME280;42018;48.588;10.836;2023-04-07T12:16:36;96620.72;;;12.81;49.51
56142;BME280;42018;48.588;10.836;2023-04-07T12:19:25;96631.16;;;12.72;48.85
56142;BME280;42018;48.588;10.836;2023-04-07T12:22:11;96622.13;;;12.97;49.95
56142;BME280;42018;48.588;10.836;2023-04-07T12:24:56;96627.38;;;13.31;48.77
56142;BME280;42018;48.588;10.836;2023-04-07T12:27:42;96628.75;;;13.00;49.23
56142;BME280;42018;48.588;10.836;2023-04-07T12:30:27;96629.66;;;12.90;49.58
56142;BME280;42018;48.588;10.836;2023-04-07T12:33:12;96629.53;;;12.76;48.37
56142;BME280;42018;48.588;10.836;2023-04-07T12:35:57;96620.13;;;12.84;48.65
56142;BME280;42018;48.588;10.836;2023-04-07T12:38:43;96627.97;;;12.99;48.35
56142;BME280;42018;48.588;10.836;2023-04-07T12:41:28;96632.16;;;13.29;48.99
56142;BME280;42018;48.588;10.836;2023-04-07T12:44:14;96629.78;;;13.04;49.15
56142;BME280;42018;48.588;10.836;2023-04-07T12:46:59;96627.41;;;13.26;49.02
56142;BME280;42018;48.588;10.836;2023-04-07T12:49:45;96621.06;;;12.98;48.73
56142;BME280;42018;48.588;10.836;2023-04-07T12:52:30;96625.81;;;12.77;50.51
56142;BME280;42018;48.588;10.836;2023-04-07T12:55:16;96628.28;;;12.68;49.90
56142;BME280;42018;48.588;10.836;2023-04-07T12:58:01;96617.59;;;12.44;50.80
56142;BME280;42018;48.588;10.836;2023-04-07T13:00:47;96623.25;;;12.67;50.15
56142;BME280;42018;48.588;10.836;2023-04-07T13:03:32;96620.88;;;12.36;51.10
56142;BME280;42018;48.588;10.836;2023-04-07T13:06:17;96631.88;;;12.54;50.96
56142;BME280;42018;48.588;10.836;2023-04-07T13:09:03;96628.44;;;12.24;51.55
56142;BME280;42018;48.588;10.836;2023-04-07T13:11:48;96625.19;;;12.27;50.90
56142;BME280;42018;48.588;10.836;2023-04-07T13:14:33;96625.78;;;12.24;51.20
56142;BME280;42018;48.588;10.836;2023-04-07T13:17:19;96627.66;;;12.18;52.06
56142;BME280;42018;48.588;10.836;2023-04-07T13:20:04;96622.38;;;12.48;50.61
56142;BME280;42018;48.588;10.836;2023-04-07T13:22:50;96621.78;;;12.56;50.98
56142;BME280;42018;48.588;10.836;2023-04-07T13:25:36;96626.59;;;13.02;50.05
56142;BME280;42018;48.588;10.836;2023-04-07T13:28:21;96621.63;;;12.95;49.97
56142;BME280;42018;48.588;10.836;2023-04-07T13:31:06;96622.81;;;12.60;50.28
56142;BME280;42018;48.588;10.836;2023-04-07T13:33:52;96621.47;;;12.57;51.44
56142;BME280;42018;48.588;10.836;2023-04-07T13:36:37;96621.38;;;12.67;50.80
56142;BME280;42018;48.588;10.836;2023-04-07T13:39:22;96620.47;;;12.53;50.62
56142;BME280;42018;48.588;10.836;2023-04-07T13:42:07;96614.72;;;12.70;50.66
56142;BME280;42018;48.588;10.836;2023-04-07T13:44:53;96608.31;;;12.71;50.23
56142;BME280;42018;48.588;10.836;2023-04-07T13:47:38;96609.13;;;12.96;50.30
56142;BME280;42018;48.588;10.836;2023-04-07T13:50:24;96616.78;;;12.73;49.22
56142;BME280;42018;48.588;10.836;2023-04-07T13:53:09;96620.53;;;12.72;49.94
56142;BME280;42018;48.588;10.836;2023-04-07T13:55:55;96615.97;;;12.78;50.30
56142;BME280;42018;48.588;10.836;2023-04-07T13:58:40;96616.13;;;12.86;49.95
56142;BME280;42018;48.588;10.836;2023-04-07T14:01:25;96614.59;;;13.04;49.88
56142;BME280;42018;48.588;10.836;2023-04-07T14:04:11;96612.81;;;13.24;48.38
56142;BME280;42018;48.588;10.836;2023-04-07T14:06:57;96614.09;;;13.26;47.85
56142;BME280;42018;48.588;10.836;2023-04-07T14:09:42;96611.19;;;13.28;47.71
56142;BME280;42018;48.588;10.836;2023-04-07T14:12:27;96613.56;;;13.48;47.91
56142;BME280;42018;48.588;10.836;2023-04-07T14:15:12;96612.53;;;13.25;48.45
56142;BME280;42018;48.588;10.836;2023-04-07T14:17:58;96610.53;;;13.36;47.33
56142;BME280;42018;48.588;10.836;2023-04-07T14:20:44;96612.28;;;12.98;48.72
56142;BME280;42018;48.588;10.836;2023-04-07T14:23:29;96606.25;;;12.92;49.11
56142;BME280;42018;48.588;10.836;2023-04-07T14:26:16;96607.25;;;12.72;50.28
56142;BME280;42018;48.588;10.836;2023-04-07T14:29:01;96606.50;;;12.90;49.48
56142;BME280;42018;48.588;10.836;2023-04-07T14:31:46;96605.50;;;12.86;48.82
56142;BME280;42018;48.588;10.836;2023-04-07T14:34:32;96601.59;;;12.79;49.65
56142;BME280;42018;48.588;10.836;2023-04-07T14:37:17;96597.28;;;13.07;49.03
56142;BME280;42018;48.588;10.836;2023-04-07T14:40:08;96603.25;;;12.99;48.33
56142;BME280;42018;48.588;10.836;2023-04-07T14:42:53;96607.50;;;13.00;49.22
56142;BME280;42018;48.588;10.836;2023-04-07T14:45:42;96603.97;;;12.80;49.97
56142;BME280;42018;48.588;10.836;2023-04-07T14:48:27;96608.94;;;12.87;50.55
56142;BME280;42018;48.588;10.836;2023-04-07T14:51:13;96612.63;;;12.67;50.44
56142;BME280;42018;48.588;10.836;2023-04-07T14:53:58;96606.16;;;12.73;49.81
56142;BME280;42018;48.588;10.836;2023-04-07T14:56:43;96603.97;;;12.56;50.11
56142;BME280;42018;48.588;10.836;2023-04-07T14:59:29;96612.16;;;12.31;50.67
56142;BME280;42018;48.588;10.836;2023-04-07T15:02:14;96613.06;;;12.50;50.73
56142;BME280;42018;48.588;10.836;2023-04-07T15:04:59;96613.84;;;12.51;50.41
56142;BME280;42018;48.588;10.836;2023-04-07T15:07:45;96608.81;;;12.73;50.83